Time;durP1;ratioP1;P1;durP2;ratioP2;P2;SDS_P1;SDS_P2;PMS_P1;PMS_P2;Temp;Humidity;BMP_temperature;BMP_pressure;BME280_temperature;BME280_humidity;BME280_pressure;Samples;Min_cycle;Max_cycle;Signal;HPM_P1;HPM_P2
2022/07/13 00:00:28;;;;;;;;;;;;;;;21.08;28.83;98062.75;4844748;29;944;-77
2022/07/13 00:02:54;;;;;;;;;;;;;;;21.18;28.73;98052.41;4844103;29;1043;-78
2022/07/13 00:05:19;;;;;;;;;;;;;;;21.13;28.40;98052.94;4844503;29;979;-78
2022/07/13 00:07:44;;;;;;;;;;;;;;;21.03;28.94;98049.91;4844451;29;1040;-78
2022/07/13 00:10:10;;;;;;;;;;;;;;;21.00;29.18;98059.28;4859285;29;881;-77
2022/07/13 00:12:35;;;;;;;;;;;;;;;21.17;28.73;98054.44;4864787;29;1988;-77
2022/07/13 00:15:01;;;;;;;;;;;;;;;21.08;28.94;98057.09;4864602;29;866;-77
2022/07/13 00:17:26;;;;;;;;;;;;;;;21.10;29.00;98054.63;4847747;29;964;-77
2022/07/13 00:19:52;;;;;;;;;;;;;;;20.94;29.31;98054.59;4864802;29;921;-77
2022/07/13 00:22:17;;;;;;;;;;;;;;;20.79;29.52;98054.94;4864589;29;843;-77
2022/07/13 00:24:43;;;;;;;;;;;;;;;20.95;29.12;98059.03;4878763;29;883;-78
2022/07/13 00:27:08;;;;;;;;;;;;;;;20.98;29.13;98058.13;4864200;29;950;-77
2022/07/13 00:29:34;;;;;;;;;;;;;;;21.45;28.31;98052.16;4864540;29;923;-77
2022/07/13 00:31:59;;;;;;;;;;;;;;;21.56;28.19;98050.69;4847417;29;1106;-77
2022/07/13 00:34:25;;;;;;;;;;;;;;;21.47;28.16;98055.38;4864579;29;1922;-77
2022/07/13 00:36:50;;;;;;;;;;;;;;;21.25;28.71;98058.72;4878930;29;1073;-77
2022/07/13 00:39:16;;;;;;;;;;;;;;;21.07;28.79;98052.66;4864232;29;878;-77
2022/07/13 00:41:45;;;;;;;;;;;;;;;21.16;28.60;98058.53;4846561;29;1015;-77
2022/07/13 00:44:11;;;;;;;;;;;;;;;21.16;28.75;98058.53;4864365;29;939;-77
2022/07/13 00:46:37;;;;;;;;;;;;;;;20.84;29.30;98058.47;4878769;29;1111;-77
2022/07/13 00:49:03;;;;;;;;;;;;;;;21.07;28.73;98061.16;4863083;29;1003;-77
2022/07/13 00:51:28;;;;;;;;;;;;;;;20.94;29.25;98063.09;4862745;29;988;-77
2022/07/13 00:53:54;;;;;;;;;;;;;;;20.72;29.44;98057.91;4863083;29;1977;-77
2022/07/13 00:56:20;;;;;;;;;;;;;;;20.90;29.08;98053.88;4863036;29;971;-77
2022/07/13 00:58:45;;;;;;;;;;;;;;;21.18;28.99;98044.72;4864026;29;916;-77
2022/07/13 01:01:11;;;;;;;;;;;;;;;21.63;28.22;98052.53;4862876;29;919;-78
2022/07/13 01:03:36;;;;;;;;;;;;;;;21.19;28.53;98056.81;4875954;29;1030;-77
2022/07/13 01:06:01;;;;;;;;;;;;;;;21.30;28.23;98046.88;4882978;29;1007;-77
2022/07/13 01:08:27;;;;;;;;;;;;;;;21.04;28.72;98057.19;4866074;29;971;-77
2022/07/13 01:10:52;;;;;;;;;;;;;;;20.95;28.78;98053.38;4882647;29;1055;-77
2022/07/13 01:13:18;;;;;;;;;;;;;;;21.08;28.86;98059.91;4865894;29;1907;-78
2022/07/13 01:15:43;;;;;;;;;;;;;;;20.86;29.34;98053.16;4865960;29;1210;-77
2022/07/13 01:18:14;;;;;;;;;;;;;;;20.92;29.25;98048.56;4882265;29;868;-78
2022/07/13 01:20:43;;;;;;;;;;;;;;;21.37;28.29;98051.56;4866254;29;1104;-78
2022/07/13 01:23:12;;;;;;;;;;;;;;;21.53;28.12;98050.75;4882448;29;945;-77
2022/07/13 01:25:37;;;;;;;;;;;;;;;21.22;28.47;98045.44;4882262;29;878;-77
2022/07/13 01:28:03;;;;;;;;;;;;;;;21.07;28.59;98038.53;4882820;29;847;-78
2022/07/13 01:30:28;;;;;;;;;;;;;;;20.90;28.87;98043.38;4881604;29;1565;-77
2022/07/13 01:32:54;;;;;;;;;;;;;;;21.06;28.52;98042.59;4882389;29;1980;-78
2022/07/13 01:35:21;;;;;;;;;;;;;;;20.98;28.80;98041.94;4882020;29;1114;-77
2022/07/13 01:37:47;;;;;;;;;;;;;;;21.02;28.69;98041.88;4865844;29;949;-77
2022/07/13 01:40:12;;;;;;;;;;;;;;;21.09;28.90;98041.72;4882456;29;1049;-77
2022/07/13 01:42:44;;;;;;;;;;;;;;;21.33;28.64;98043.16;4882674;29;867;-78
2022/07/13 01:45:10;;;;;;;;;;;;;;;21.62;27.83;98045.28;4865730;29;926;-77
2022/07/13 01:47:39;;;;;;;;;;;;;;;21.26;28.51;98040.47;4882269;29;923;-77
2022/07/13 01:50:05;;;;;;;;;;;;;;;21.20;28.73;98047.91;4849374;29;1069;-78
2022/07/13 01:52:33;;;;;;;;;;;;;;;21.20;28.58;98059.22;4882307;29;1903;-78
2022/07/13 01:54:58;;;;;;;;;;;;;;;20.83;29.28;98056.84;4883365;29;1188;-77
2022/07/13 01:57:24;;;;;;;;;;;;;;;20.79;29.38;98054.94;4883485;29;971;-77
2022/07/13 01:59:49;;;;;;;;;;;;;;;20.96;28.63;98040.81;4864703;29;1237;-78
2022/07/13 02:02:15;;;;;;;;;;;;;;;21.14;28.43;98035.53;4864837;29;1552;-78
2022/07/13 02:04:41;;;;;;;;;;;;;;;21.08;28.70;98034.44;4864681;29;1267;-78
2022/07/13 02:07:07;;;;;;;;;;;;;;;20.93;28.86;98042.47;4864589;29;1126;-77
2022/07/13 02:09:33;;;;;;;;;;;;;;;21.11;28.52;98038.44;4864862;29;1332;-77
2022/07/13 02:11:59;;;;;;;;;;;;;;;21.32;28.23;98038.75;4864773;29;1212;-78
2022/07/13 02:14:24;;;;;;;;;;;;;;;21.55;27.72;98040.59;4864267;29;1974;-77
2022/07/13 02:16:50;;;;;;;;;;;;;;;21.63;27.61;98038.38;4864776;29;937;-77
2022/07/13 02:19:15;;;;;;;;;;;;;;;21.77;27.43;98035.16;4849090;29;1179;-77
2022/07/13 02:21:40;;;;;;;;;;;;;;;21.36;28.04;98035.84;4833435;29;862;-78
2022/07/13 02:24:08;;;;;;;;;;;;;;;21.24;28.50;98037.31;4864187;29;924;-78
2022/07/13 02:26:33;;;;;;;;;;;;;;;21.18;28.47;98030.56;4836634;29;1210;-78
2022/07/13 02:28:59;;;;;;;;;;;;;;;21.07;28.85;98027.19;4827399;29;1053;-78
2022/07/13 02:31:24;;;;;;;;;;;;;;;21.12;28.64;98034.38;4841153;29;1075;-78
2022/07/13 02:33:50;;;;;;;;;;;;;;;21.02;28.87;98041.88;4845872;29;1923;-77
2022/07/13 02:36:15;;;;;;;;;;;;;;;21.10;28.73;98043.31;4845596;29;952;-78
2022/07/13 02:38:41;;;;;;;;;;;;;;;20.93;29.06;98033.19;4845742;29;1234;-77
2022/07/13 02:41:06;;;;;;;;;;;;;;;21.24;28.53;98031.66;4874368;29;1050;-77
2022/07/13 02:43:31;;;;;;;;;;;;;;;21.56;28.14;98022.38;4884849;29;982;-78
2022/07/13 02:45:57;;;;;;;;;;;;;;;21.50;28.07;98026.16;4884273;29;1295;-77
2022/07/13 02:48:23;;;;;;;;;;;;;;;21.12;28.88;98023.06;4836542;29;1055;-78
2022/07/13 02:50:48;;;;;;;;;;;;;;;20.90;29.52;98025.59;4883492;29;1174;-77
2022/07/13 02:53:14;;;;;;;;;;;;;;;20.94;29.60;98020.66;4863897;29;1907;-77
2022/07/13 02:55:39;;;;;;;;;;;;;;;20.94;29.30;98024.28;4848764;29;1130;-77
2022/07/13 02:58:06;;;;;;;;;;;;;;;21.02;29.29;98027.72;4848564;29;1320;-77
2022/07/13 03:00:32;;;;;;;;;;;;;;;20.99;29.41;98023.75;4864174;29;1141;-77
2022/07/13 03:02:57;;;;;;;;;;;;;;;21.12;29.30;98018.19;4863779;29;1254;-77
2022/07/13 03:05:23;;;;;;;;;;;;;;;20.97;29.44;98019.75;4863126;29;931;-78
2022/07/13 03:07:49;;;;;;;;;;;;;;;20.86;29.44;98027.72;4844982;29;1265;-78
2022/07/13 03:10:15;;;;;;;;;;;;;;;21.38;29.08;98019.19;4829675;29;1211;-77
2022/07/13 03:12:41;;;;;;;;;;;;;;;21.67;28.30;98019.25;4826252;29;1903;-77
2022/07/13 03:15:07;;;;;;;;;;;;;;;21.32;28.75;98018.13;4827021;29;1306;-77
2022/07/13 03:17:33;;;;;;;;;;;;;;;21.31;29.29;98025.84;4841786;29;1219;-78
2022/07/13 03:20:03;;;;;;;;;;;;;;;21.21;29.03;98020.41;4811213;29;1556;-78
2022/07/13 03:22:28;;;;;;;;;;;;;;;21.13;29.18;98016.94;4826775;29;1220;-77
2022/07/13 03:24:54;;;;;;;;;;;;;;;21.20;29.00;98019.63;4812479;29;1178;-78
2022/07/13 03:27:19;;;;;;;;;;;;;;;21.24;29.32;98020.34;4826944;29;1052;-78
2022/07/13 03:29:45;;;;;;;;;;;;;;;21.04;29.51;98019.63;4808288;29;944;-77
2022/07/13 03:32:10;;;;;;;;;;;;;;;21.01;29.50;98017.66;4826223;29;1840;-78
2022/07/13 03:34:37;;;;;;;;;;;;;;;20.77;30.22;98019.81;4810913;29;1992;-78
2022/07/13 03:37:03;;;;;;;;;;;;;;;20.86;30.04;98016.41;4811293;29;1192;-78
2022/07/13 03:39:28;;;;;;;;;;;;;;;21.17;29.57;98009.16;4750784;30;1969;-78
2022/07/13 03:41:56;;;;;;;;;;;;;;;21.51;28.78;98016.44;4787395;30;1219;-78
2022/07/13 03:44:21;;;;;;;;;;;;;;;21.21;29.23;98015.53;4769092;30;1151;-77
2022/07/13 03:46:47;;;;;;;;;;;;;;;21.06;29.61;98012.25;4754463;30;1210;-78
2022/07/13 03:49:14;;;;;;;;;;;;;;;20.97;29.69;98017.72;4753412;30;1699;-78
2022/07/13 03:51:41;;;;;;;;;;;;;;;21.11;29.46;98010.94;4754134;30;1302;-77
2022/07/13 03:54:06;;;;;;;;;;;;;;;20.95;29.74;98008.09;4754464;30;1923;-78
2022/07/13 03:56:33;;;;;;;;;;;;;;;21.82;28.56;98014.78;5074578;23;3934;-77
2022/07/13 03:58:59;;;;;;;;;;;;;;;22.09;28.90;98022.16;4862156;29;1466;-78
2022/07/13 04:01:25;;;;;;;;;;;;;;;22.44;29.56;98025.25;5000483;24;3739;-77
2022/07/13 04:03:51;;;;;;;;;;;;;;;22.16;30.79;98016.31;4896170;29;1715;-77
2022/07/13 04:06:17;;;;;;;;;;;;;;;21.74;31.31;98013.38;4862412;29;1408;-78
2022/07/13 04:08:43;;;;;;;;;;;;;;;21.56;31.50;98007.41;4828865;29;1069;-77
2022/07/13 04:11:08;;;;;;;;;;;;;;;21.39;31.26;98003.78;4807939;29;1348;-77
2022/07/13 04:13:34;;;;;;;;;;;;;;;21.35;31.12;98010.78;4789119;29;1956;-78
2022/07/13 04:15:59;;;;;;;;;;;;;;;21.10;31.37;98015.00;4753210;30;919;-77
2022/07/13 04:18:28;;;;;;;;;;;;;;;21.06;30.88;98028.44;4736354;30;1009;-78
2022/07/13 04:20:54;;;;;;;;;;;;;;;21.37;30.46;98034.59;4736534;30;931;-77
2022/07/13 04:23:20;;;;;;;;;;;;;;;21.46;29.88;98025.47;4736189;30;1414;-78
2022/07/13 04:25:47;;;;;;;;;;;;;;;21.07;30.42;98038.53;4735706;30;1338;-78
2022/07/13 04:28:13;;;;;;;;;;;;;;;21.07;30.20;98032.84;4690015;30;1186;-78
2022/07/13 04:30:39;;;;;;;;;;;;;;;21.06;30.35;98031.28;4718797;30;1422;-78
2022/07/13 04:36:30;;;;;;;;;;;;;;;21.10;29.78;98037.66;4715737;30;1736;-77
2022/07/13 04:38:57;;;;;;;;;;;;;;;20.97;29.78;98050.88;4704122;30;1518;-77
2022/07/13 04:41:23;;;;;;;;;;;;;;;21.05;29.67;98052.31;4707318;30;1339;-77
2022/07/13 04:43:50;;;;;;;;;;;;;;;21.01;29.88;98051.59;4742391;30;1102;-78
2022/07/13 04:46:17;;;;;;;;;;;;;;;21.13;29.37;98048.06;4771669;30;907;-78
2022/07/13 04:48:43;;;;;;;;;;;;;;;21.12;29.53;98043.66;4774956;30;1291;-78
2022/07/13 04:51:11;;;;;;;;;;;;;;;21.04;29.80;98054.34;4788963;29;1582;-77
2022/07/13 04:53:37;;;;;;;;;;;;;;;20.74;30.02;98058.28;4771382;30;1903;-77
2022/07/13 04:56:02;;;;;;;;;;;;;;;20.88;29.91;98050.69;4758181;30;1193;-78
2022/07/13 04:58:29;;;;;;;;;;;;;;;21.18;29.60;98050.38;4741648;30;2106;-77
2022/07/13 05:00:54;;;;;;;;;;;;;;;21.42;29.63;98047.41;4734967;30;1670;-78
2022/07/13 05:03:20;;;;;;;;;;;;;;;21.41;29.33;98069.25;4748941;30;1720;-78
2022/07/13 05:05:46;;;;;;;;;;;;;;;21.24;29.73;98064.78;4771235;30;1247;-78
2022/07/13 05:08:11;;;;;;;;;;;;;;;21.18;29.61;98064.53;4726461;30;1621;-78
2022/07/13 05:10:37;;;;;;;;;;;;;;;21.14;29.65;98066.66;4683588;30;1366;-78
2022/07/13 05:13:02;;;;;;;;;;;;;;;21.13;29.40;98069.91;4683745;30;1908;-78
2022/07/13 05:15:28;;;;;;;;;;;;;;;21.12;29.50;98069.13;4683641;30;1005;-78
2022/07/13 05:17:54;;;;;;;;;;;;;;;20.97;29.87;98073.50;4670746;30;930;-78
2022/07/13 05:20:21;;;;;;;;;;;;;;;21.08;29.48;98079.72;4680141;30;1712;-78
2022/07/13 05:22:52;;;;;;;;;;;;;;;20.90;29.74;98079.34;4710410;30;1222;-77
2022/07/13 05:28:45;;;;;;;;;;;;;;;20.99;29.83;98079.53;4720573;30;1010;-78
2022/07/13 05:31:14;;;;;;;;;;;;;;;21.48;29.17;98079.59;4739090;30;1637;-78
2022/07/13 05:33:40;;;;;;;;;;;;;;;21.66;28.72;98090.47;4739457;30;1997;-78
2022/07/13 05:36:09;;;;;;;;;;;;;;;21.39;28.83;98088.72;4739181;30;1079;-78
2022/07/13 05:38:36;;;;;;;;;;;;;;;21.46;29.03;98093.41;4751104;30;1231;-78
2022/07/13 05:41:02;;;;;;;;;;;;;;;21.35;29.05;98087.19;4797985;29;1258;-77
2022/07/13 05:43:28;;;;;;;;;;;;;;;21.05;29.77;98091.94;4795700;29;1317;-78
2022/07/13 05:45:53;;;;;;;;;;;;;;;21.00;29.65;98081.13;4795453;29;1128;-77
2022/07/13 05:48:19;;;;;;;;;;;;;;;21.10;29.33;98082.91;4796992;29;1125;-78
2022/07/13 05:50:44;;;;;;;;;;;;;;;20.95;29.77;98082.44;4794346;29;1774;-78
2022/07/13 05:53:10;;;;;;;;;;;;;;;21.03;29.44;98083.06;4795144;29;1903;-78
2022/07/13 05:55:36;;;;;;;;;;;;;;;21.19;29.51;98088.78;4795703;29;1169;-78
2022/07/13 05:58:01;;;;;;;;;;;;;;;21.20;29.49;98076.22;4812012;29;1734;-78
2022/07/13 06:00:27;;;;;;;;;;;;;;;21.33;29.42;98073.50;4799595;29;1638;-78
2022/07/13 06:02:53;;;;;;;;;;;;;;;21.69;28.84;98084.72;4777834;29;1583;-78
2022/07/13 06:05:19;;;;;;;;;;;;;;;21.58;28.65;98084.22;4801149;29;899;-78
2022/07/13 06:07:45;;;;;;;;;;;;;;;21.48;28.91;98079.59;4782325;29;905;-78
2022/07/13 06:10:10;;;;;;;;;;;;;;;21.23;29.13;98078.16;4747727;30;1084;-78
2022/07/13 06:12:36;;;;;;;;;;;;;;;20.98;29.84;98075.88;4755996;30;1990;-78
2022/07/13 06:15:01;;;;;;;;;;;;;;;21.14;29.48;98080.81;4785762;30;1272;-78
2022/07/13 06:17:27;;;;;;;;;;;;;;;21.08;29.55;98079.72;4775835;30;1810;-78
2022/07/13 06:19:52;;;;;;;;;;;;;;;20.94;29.71;98080.06;4773600;30;941;-78
2022/07/13 06:22:18;;;;;;;;;;;;;;;20.81;29.92;98072.25;4773851;30;1693;-78
2022/07/13 06:24:43;;;;;;;;;;;;;;;21.02;29.54;98081.47;4772631;30;956;-78
2022/07/13 06:27:09;;;;;;;;;;;;;;;21.00;29.58;98078.31;4756318;30;958;-77
2022/07/13 06:29:34;;;;;;;;;;;;;;;21.04;29.73;98076.19;4755726;30;1130;-78
2022/07/13 06:32:00;;;;;;;;;;;;;;;20.96;29.63;98080.41;4768908;30;982;-78
2022/07/13 06:34:25;;;;;;;;;;;;;;;20.93;29.55;98079.25;4786333;29;1916;-78
2022/07/13 06:36:51;;;;;;;;;;;;;;;21.13;29.21;98082.03;4765680;30;973;-78
2022/07/13 06:39:17;;;;;;;;;;;;;;;21.01;29.43;98079.88;4755032;30;1060;-77
2022/07/13 06:41:42;;;;;;;;;;;;;;;21.06;29.49;98076.53;4756301;30;1027;-77
2022/07/13 06:44:08;;;;;;;;;;;;;;;21.24;29.32;98085.41;4770725;29;1031;-78
2022/07/13 06:46:33;;;;;;;;;;;;;;;21.64;28.91;98082.44;4796500;29;915;-78
2022/07/13 06:48:59;;;;;;;;;;;;;;;21.49;28.74;98081.19;4790120;29;1873;-78
2022/07/13 06:51:24;;;;;;;;;;;;;;;21.26;29.44;98080.09;4808378;29;1875;-77
2022/07/13 06:53:50;;;;;;;;;;;;;;;21.20;29.68;98081.88;4796311;29;1986;-77
2022/07/13 06:56:15;;;;;;;;;;;;;;;21.16;29.38;98086.81;4778540;29;905;-78
2022/07/13 06:58:41;;;;;;;;;;;;;;;21.23;29.35;98080.97;4827660;29;880;-77
2022/07/13 07:01:06;;;;;;;;;;;;;;;21.21;29.13;98077.81;4866864;29;1988;-78
2022/07/13 07:03:31;;;;;;;;;;;;;;;21.01;29.58;98088.38;4882619;29;934;-77
2022/07/13 07:05:58;;;;;;;;;;;;;;;20.93;30.12;98072.78;4883027;29;1093;-77
2022/07/13 07:08:23;;;;;;;;;;;;;;;21.02;29.54;98075.81;4882682;29;1007;-78
2022/07/13 07:10:49;;;;;;;;;;;;;;;21.20;29.34;98093.19;4897033;29;1738;-77
2022/07/13 07:13:15;;;;;;;;;;;;;;;21.07;29.72;98092.28;4848291;29;1903;-78
2022/07/13 07:15:40;;;;;;;;;;;;;;;21.22;29.51;98089.91;4864016;29;1059;-77
2022/07/13 07:18:06;;;;;;;;;;;;;;;20.93;29.55;98089.75;4863941;29;1166;-78
2022/07/13 07:20:31;;;;;;;;;;;;;;;21.12;29.63;98088.91;4850138;29;1822;-78
2022/07/13 07:22:57;;;;;;;;;;;;;;;21.05;29.68;98086.25;4813775;29;1293;-77
2022/07/13 07:25:22;;;;;;;;;;;;;;;21.11;29.55;98087.34;4808816;29;1236;-78
2022/07/13 07:27:48;;;;;;;;;;;;;;;21.18;29.47;98089.97;4793475;29;1738;-78
2022/07/13 07:30:14;;;;;;;;;;;;;;;21.71;28.60;98093.59;4808748;29;992;-78
2022/07/13 07:32:39;;;;;;;;;;;;;;;21.57;28.81;98093.94;4808953;29;1907;-78
2022/07/13 07:35:06;;;;;;;;;;;;;;;21.37;29.04;98096.84;4793473;29;931;-78
2022/07/13 07:37:32;;;;;;;;;;;;;;;21.18;29.58;98095.66;4771264;30;1715;-78
2022/07/13 07:39:57;;;;;;;;;;;;;;;21.33;29.22;98096.94;4773302;30;981;-78
2022/07/13 07:42:23;;;;;;;;;;;;;;;21.35;29.08;98093.69;4772965;30;906;-78
2022/07/13 07:44:48;;;;;;;;;;;;;;;21.13;29.46;98101.03;4785888;30;939;-78
2022/07/13 07:47:15;;;;;;;;;;;;;;;21.11;29.71;98097.84;4790435;30;913;-78
2022/07/13 07:49:41;;;;;;;;;;;;;;;21.25;29.38;98089.84;4774715;30;1806;-78
2022/07/13 07:52:06;;;;;;;;;;;;;;;21.31;29.55;98096.59;4767824;30;892;-77
2022/07/13 07:54:32;;;;;;;;;;;;;;;21.24;29.56;98099.56;4785865;30;1907;-78
2022/07/13 07:56:59;;;;;;;;;;;;;;;21.09;29.75;98103.97;4806621;29;1954;-78
2022/07/13 07:59:24;;;;;;;;;;;;;;;21.32;29.36;98105.88;4825599;29;1741;-78
2022/07/13 08:01:50;;;;;;;;;;;;;;;21.23;29.34;98097.94;4825779;29;1729;-78
2022/07/13 08:04:15;;;;;;;;;;;;;;;21.16;29.78;98106.63;4826159;29;941;-77
2022/07/13 08:06:41;;;;;;;;;;;;;;;21.12;29.80;98105.91;4812209;29;1733;-78
2022/07/13 08:09:06;;;;;;;;;;;;;;;21.21;29.37;98106.09;4821598;29;1090;-77
2022/07/13 08:11:32;;;;;;;;;;;;;;;21.22;29.62;98106.88;4826014;29;794;-78
2022/07/13 08:13:57;;;;;;;;;;;;;;;21.21;29.34;98108.94;4825946;29;1992;-77
2022/07/13 08:16:23;;;;;;;;;;;;;;;20.93;29.93;98106.72;4836400;29;1681;-78
2022/07/13 08:18:48;;;;;;;;;;;;;;;21.07;29.56;98112.06;4871613;29;976;-78
2022/07/13 08:21:14;;;;;;;;;;;;;;;21.01;29.56;98108.19;4881149;29;1004;-77
2022/07/13 08:23:51;;;;;;;;;;;;;;;21.11;29.72;98112.81;4863063;29;1755;-78
2022/07/13 08:26:20;;;;;;;;;;;;;;;21.07;29.56;98110.03;4880421;29;1869;-77
2022/07/13 08:28:45;;;;;;;;;;;;;;;21.04;29.71;98113.75;4880905;29;936;-77
2022/07/13 08:31:14;;;;;;;;;;;;;;;20.97;30.08;98107.44;4865796;29;970;-77
2022/07/13 08:39:07;;;;;;;;;;;;;;;21.43;29.14;98105.63;4880669;29;1004;-78
2022/07/13 08:41:33;;;;;;;;;;;;;;;21.66;28.86;98108.28;4881075;29;934;-78
2022/07/13 08:43:59;;;;;;;;;;;;;;;21.27;29.61;98104.31;4842925;29;1732;-78
2022/07/13 08:46:24;;;;;;;;;;;;;;;21.24;29.38;98110.06;4844164;29;977;-78
2022/07/13 08:48:50;;;;;;;;;;;;;;;21.24;29.36;98110.88;4862014;29;1020;-77
2022/07/13 08:51:18;;;;;;;;;;;;;;;21.12;29.87;98114.38;4843612;29;1246;-77
2022/07/13 08:53:44;;;;;;;;;;;;;;;21.35;29.43;98109.84;4837802;29;1908;-78
2022/07/13 08:56:12;;;;;;;;;;;;;;;21.23;29.38;98114.13;4807345;29;1148;-78
2022/07/13 08:58:38;;;;;;;;;;;;;;;21.20;29.62;98115.81;4825280;29;1235;-77
2022/07/13 09:01:05;;;;;;;;;;;;;;;21.30;29.52;98109.16;4797402;29;1076;-77
2022/07/13 09:03:34;;;;;;;;;;;;;;;21.28;29.31;98117.25;4806146;29;1821;-78
2022/07/13 09:06:00;;;;;;;;;;;;;;;21.22;29.45;98116.16;4806981;29;983;-78
2022/07/13 09:08:25;;;;;;;;;;;;;;;21.30;29.24;98103.50;4807207;29;1093;-78
2022/07/13 09:10:52;;;;;;;;;;;;;;;21.41;29.23;98108.09;4792036;29;1046;-78
2022/07/13 09:13:38;;;;;;;;;;;;;;;21.37;28.89;98118.72;4806810;29;1927;-78
2022/07/13 09:16:37;;;;;;;;;;;;;;;21.24;29.36;98113.72;4822851;29;1790;-78
2022/07/13 09:19:03;;;;;;;;;;;;;;;21.05;29.53;98117.38;4821502;29;1809;-77
2022/07/13 09:21:31;;;;;;;;;;;;;;;21.02;29.48;98109.75;4810092;29;951;-78
2022/07/13 09:23:57;;;;;;;;;;;;;;;21.14;29.53;98111.94;4828941;29;1781;-77
2022/07/13 09:26:22;;;;;;;;;;;;;;;21.17;29.14;98098.91;4843442;29;906;-77
2022/07/13 09:28:49;;;;;;;;;;;;;;;21.14;29.19;98094.97;4846350;29;1091;-78
2022/07/13 09:31:14;;;;;;;;;;;;;;;21.27;29.11;98104.31;4861586;29;1086;-78
2022/07/13 09:33:40;;;;;;;;;;;;;;;21.05;29.26;98097.59;4822318;29;1980;-78
2022/07/13 09:36:13;;;;;;;;;;;;;;;21.22;29.14;98096.38;4806849;29;1144;-78
2022/07/13 09:38:42;;;;;;;;;;;;;;;21.11;29.39;98095.03;4806842;29;952;-77
2022/07/13 09:41:14;;;;;;;;;;;;;;;21.16;29.41;98089.63;4807075;29;980;-78
2022/07/13 09:46:51;;;;;;;;;;;;;;;21.00;29.51;98087.59;4806657;29;924;-77
2022/07/13 09:49:17;;;;;;;;;;;;;;;21.15;29.25;98092.91;4806840;29;1409;-77
2022/07/13 09:51:44;;;;;;;;;;;;;;;21.16;29.21;98095.31;4806836;29;928;-78
2022/07/13 09:54:09;;;;;;;;;;;;;;;20.95;29.38;98090.94;4805984;29;2028;-78
2022/07/13 09:56:34;;;;;;;;;;;;;;;21.10;28.97;98088.56;4806817;29;976;-77
2022/07/13 09:59:03;;;;;;;;;;;;;;;21.17;29.07;98088.41;4806691;29;902;-77
2022/07/13 10:01:29;;;;;;;;;;;;;;;21.37;28.63;98087.56;4788372;30;1087;-77
2022/07/13 10:03:54;;;;;;;;;;;;;;;21.84;28.23;98082.31;4790979;29;1967;-77
2022/07/13 10:06:20;;;;;;;;;;;;;;;21.46;28.56;98076.44;4788544;30;933;-78
2022/07/13 10:08:46;;;;;;;;;;;;;;;21.20;29.27;98076.22;4806505;29;1372;-77
2022/07/13 10:11:11;;;;;;;;;;;;;;;21.17;29.05;98077.06;4816139;29;958;-77
2022/07/13 10:13:37;;;;;;;;;;;;;;;21.22;29.29;98073.72;4823632;29;1980;-77
2022/07/13 10:16:03;;;;;;;;;;;;;;;21.28;28.77;98076.81;4809421;29;1876;-78
2022/07/13 10:18:29;;;;;;;;;;;;;;;21.10;29.17;98071.59;4810014;29;920;-78
2022/07/13 10:21:12;;;;;;;;;;;;;;;21.10;29.38;98074.44;4795532;29;1000;-78
2022/07/13 10:23:38;;;;;;;;;;;;;;;21.13;29.29;98070.69;4790062;30;1933;-78
2022/07/13 10:26:04;;;;;;;;;;;;;;;21.33;28.70;98079.16;4755754;30;1050;-77
2022/07/13 10:28:29;;;;;;;;;;;;;;;21.09;29.21;98067.19;4755704;30;918;-78
2022/07/13 10:30:55;;;;;;;;;;;;;;;21.09;29.21;98075.66;4755564;30;977;-77
2022/07/13 10:33:21;;;;;;;;;;;;;;;21.13;28.84;98070.69;4754671;30;1983;-78
2022/07/13 10:35:55;;;;;;;;;;;;;;;20.96;29.39;98071.91;4773046;30;1017;-77
2022/07/13 10:38:27;;;;;;;;;;;;;;;21.01;28.99;98062.91;4790427;29;1045;-77
2022/07/13 10:41:11;;;;;;;;;;;;;;;21.02;29.14;98064.50;4759562;30;951;-78
2022/07/13 10:43:36;;;;;;;;;;;;;;;21.15;28.67;98056.94;4758723;30;1712;-78
2022/07/13 10:46:02;;;;;;;;;;;;;;;20.97;29.05;98067.84;4773380;30;990;-77
2022/07/13 10:48:34;;;;;;;;;;;;;;;21.04;28.92;98056.41;4773264;30;1063;-77
2022/07/13 10:51:00;;;;;;;;;;;;;;;21.07;28.87;98061.94;4777198;29;986;-77
2022/07/13 10:53:37;;;;;;;;;;;;;;;21.28;28.82;98060.63;4807838;29;1964;-77
2022/07/13 10:56:02;;;;;;;;;;;;;;;21.12;28.67;98052.13;4823996;29;1852;-77
2022/07/13 10:58:31;;;;;;;;;;;;;;;21.23;28.59;98054.72;4808617;29;1953;-77
2022/07/13 11:00:57;;;;;;;;;;;;;;;21.21;28.62;98043.84;4808167;29;1766;-78
2022/07/13 11:03:35;;;;;;;;;;;;;;;21.27;28.48;98050.56;4809061;29;980;-77
2022/07/13 11:06:04;;;;;;;;;;;;;;;21.35;28.71;98062.56;4812355;29;1042;-77
2022/07/13 11:08:30;;;;;;;;;;;;;;;21.11;28.90;98061.06;4861392;29;1788;-77
2022/07/13 11:11:08;;;;;;;;;;;;;;;21.53;28.12;98064.91;4901091;29;1116;-77
2022/07/13 11:13:35;;;;;;;;;;;;;;;21.68;27.77;98049.16;4900896;29;1895;-77
2022/07/13 11:16:00;;;;;;;;;;;;;;;21.47;28.21;98049.72;4901065;29;984;-77
2022/07/13 11:18:29;;;;;;;;;;;;;;;21.42;28.47;98047.41;4897717;29;1665;-77
2022/07/13 11:20:59;;;;;;;;;;;;;;;21.38;28.42;98046.69;4892649;29;1893;-77
2022/07/13 11:26:14;;;;;;;;;;;;;;;21.23;28.98;98047.00;4881330;29;1087;-77
2022/07/13 11:28:43;;;;;;;;;;;;;;;21.16;28.77;98040.75;4881944;29;988;-77
2022/07/13 11:31:10;;;;;;;;;;;;;;;20.90;29.22;98034.88;4881311;29;1702;-77
2022/07/13 11:33:36;;;;;;;;;;;;;;;21.30;28.84;98029.13;4879593;29;1966;-77
2022/07/13 11:36:01;;;;;;;;;;;;;;;21.18;28.77;98044.72;4882190;29;935;-77
2022/07/13 11:38:34;;;;;;;;;;;;;;;21.19;28.97;98057.66;4881968;29;918;-77
2022/07/13 11:41:00;;;;;;;;;;;;;;;21.04;28.94;98043.03;4872059;29;1749;-77
2022/07/13 11:43:26;;;;;;;;;;;;;;;21.02;28.94;98041.88;4863530;29;1013;-77
2022/07/13 11:45:51;;;;;;;;;;;;;;;21.09;29.08;98047.38;4863151;29;1027;-77
2022/07/13 11:48:17;;;;;;;;;;;;;;;21.03;28.87;98049.13;4863445;29;1012;-77
2022/07/13 11:50:49;;;;;;;;;;;;;;;21.12;29.04;98046.47;4869138;29;1745;-77
2022/07/13 11:53:27;;;;;;;;;;;;;;;21.04;28.94;98034.56;4867145;29;1927;-77
2022/07/13 11:55:52;;;;;;;;;;;;;;;21.13;29.09;98033.91;4901224;29;1745;-78
2022/07/13 11:58:22;;;;;;;;;;;;;;;21.07;28.93;98028.00;4902704;29;873;-77
2022/07/13 12:00:47;;;;;;;;;;;;;;;20.95;29.31;98030.72;4909095;29;1044;-77
2022/07/13 12:06:38;;;;;;;;;;;;;;;20.79;29.64;98023.81;4902036;29;1327;-77
2022/07/13 12:09:03;;;;;;;;;;;;;;;20.93;29.23;98021.88;4902495;29;1011;-77
2022/07/13 12:11:29;;;;;;;;;;;;;;;21.07;28.77;98013.06;4902817;29;1908;-77
2022/07/13 12:13:54;;;;;;;;;;;;;;;21.11;28.68;98022.25;4903165;29;1968;-77
2022/07/13 12:16:20;;;;;;;;;;;;;;;20.96;28.97;98021.00;4903106;29;954;-78
2022/07/13 12:18:55;;;;;;;;;;;;;;;21.11;28.72;98022.25;4921019;29;893;-77
2022/07/13 12:21:21;;;;;;;;;;;;;;;21.11;29.07;98021.47;4918298;29;1899;-77
2022/07/13 12:23:48;;;;;;;;;;;;;;;21.02;28.88;98007.94;4920916;29;926;-77
2022/07/13 12:26:13;;;;;;;;;;;;;;;21.03;28.96;98026.50;4901179;29;1710;-77
2022/07/13 12:28:40;;;;;;;;;;;;;;;21.19;28.83;98022.88;4877090;29;1651;-77
2022/07/13 12:31:05;;;;;;;;;;;;;;;21.22;28.62;98016.34;4874639;29;1719;-77
2022/07/13 12:33:42;;;;;;;;;;;;;;;20.98;29.22;98015.69;4880823;29;1899;-77
2022/07/13 12:36:08;;;;;;;;;;;;;;;21.01;29.01;98006.34;4881293;29;904;-77
2022/07/13 12:38:34;;;;;;;;;;;;;;;21.21;28.81;97997.78;4877513;29;1707;-77
2022/07/13 12:41:03;;;;;;;;;;;;;;;21.42;28.21;98004.94;4862278;29;971;-77
2022/07/13 12:43:30;;;;;;;;;;;;;;;21.27;28.73;97996.78;4847319;29;1964;-77
2022/07/13 12:45:56;;;;;;;;;;;;;;;21.27;28.62;98002.44;4873643;29;1679;-77
2022/07/13 12:48:23;;;;;;;;;;;;;;;21.23;28.53;97996.06;4880946;29;976;-77
2022/07/13 12:50:58;;;;;;;;;;;;;;;21.43;28.38;97989.56;4880632;29;980;-77
2022/07/13 12:53:23;;;;;;;;;;;;;;;21.39;28.29;97997.34;4864989;29;1975;-77
2022/07/13 12:55:50;;;;;;;;;;;;;;;21.36;28.32;97987.72;4862758;29;1723;-77
2022/07/13 12:58:15;;;;;;;;;;;;;;;21.12;28.63;97983.44;4862182;29;1038;-77
2022/07/13 13:00:42;;;;;;;;;;;;;;;21.13;29.04;97985.81;4846177;29;1211;-77
2022/07/13 13:03:07;;;;;;;;;;;;;;;21.02;29.04;97990.94;4862287;29;1109;-77
2022/07/13 13:05:33;;;;;;;;;;;;;;;21.07;28.84;97993.25;4860877;29;1703;-77
2022/07/13 13:07:58;;;;;;;;;;;;;;;21.15;28.58;97999.53;4862069;29;948;-77
2022/07/13 13:10:24;;;;;;;;;;;;;;;21.16;28.68;98010.41;4861870;29;920;-77
2022/07/13 13:12:49;;;;;;;;;;;;;;;21.09;28.86;97996.44;4862134;29;962;-77
2022/07/13 13:15:15;;;;;;;;;;;;;;;21.13;28.79;97991.47;4876342;29;1911;-77
2022/07/13 13:17:41;;;;;;;;;;;;;;;21.09;28.67;97987.97;4880611;29;903;-78